La Salle, Canada
Current Conditions -  °F | °C
As of 7:00 PM on Thursday 27 Nov 2014 (Local Time) from CYWG Reporting Station
Overcast Overcast  
Wind Chill: -26°   Ceiling: 3400
Heat Index: -16°   Visibility: 15mi
Dew Point: -20°   Wind: 14mph
Humidity: 72%   Direction: 170°S
Pressure: 30.21"   Gusts: NA
Location:  49.68°N, 97.27°W
Report Text: CYWG 280100Z 17012KT 15SM BKN034 OVC150 M16/M20 A3021 RMK SC6AS2 SLP258
Loading
Personal Weather Stations






























Interactive Weather Map New forecast layout! Learn more

10-Day Weather Forecast

Advertisements
Track Severe Weather on mobile